sensor_id;sensor_type;location;lat;lon;timestamp;pressure;altitude;pressure_sealevel;temperature;humidity
81704;BME280;71117;52.352;4.808;2024-03-08T00:00:03;102049.97;;;3.34;89.54
81704;BME280;71117;52.352;4.808;2024-03-08T00:02:39;102040.22;;;3.32;89.82
81704;BME280;71117;52.352;4.808;2024-03-08T00:05:05;102045.06;;;3.26;89.92
81704;BME280;71117;52.352;4.808;2024-03-08T00:07:31;102038.41;;;3.31;90.00
81704;BME280;71117;52.352;4.808;2024-03-08T00:09:57;102025.97;;;3.27;89.40
81704;BME280;71117;52.352;4.808;2024-03-08T00:12:22;102021.97;;;3.32;89.00
81704;BME280;71117;52.352;4.808;2024-03-08T00:14:47;102023.84;;;3.34;88.80
81704;BME280;71117;52.352;4.808;2024-03-08T00:17:13;102024.75;;;3.35;88.26
81704;BME280;71117;52.352;4.808;2024-03-08T00:19:40;102022.44;;;3.39;87.82
81704;BME280;71117;52.352;4.808;2024-03-08T00:22:06;102023.16;;;3.37;87.79
81704;BME280;71117;52.352;4.808;2024-03-08T00:24:33;102019.13;;;3.29;87.89
81704;BME280;71117;52.352;4.808;2024-03-08T00:26:58;102021.44;;;3.24;88.14
81704;BME280;71117;52.352;4.808;2024-03-08T00:29:23;102011.50;;;3.18;88.50
81704;BME280;71117;52.352;4.808;2024-03-08T00:31:49;102015.81;;;3.18;87.84
81704;BME280;71117;52.352;4.808;2024-03-08T00:34:14;102012.72;;;3.24;88.04
81704;BME280;71117;52.352;4.808;2024-03-08T00:36:39;102007.56;;;3.25;87.16
81704;BME280;71117;52.352;4.808;2024-03-08T00:39:04;102016.22;;;3.24;87.08
81704;BME280;71117;52.352;4.808;2024-03-08T00:41:32;102003.69;;;3.32;85.94
81704;BME280;71117;52.352;4.808;2024-03-08T00:43:57;101999.25;;;3.31;85.83
81704;BME280;71117;52.352;4.808;2024-03-08T00:46:23;101998.16;;;3.27;86.00
81704;BME280;71117;52.352;4.808;2024-03-08T00:48:48;101999.56;;;3.22;86.07
81704;BME280;71117;52.352;4.808;2024-03-08T00:51:13;101993.44;;;3.22;85.10
81704;BME280;71117;52.352;4.808;2024-03-08T00:53:40;101994.13;;;3.19;85.35
81704;BME280;71117;52.352;4.808;2024-03-08T00:56:07;101994.03;;;3.17;84.40
81704;BME280;71117;52.352;4.808;2024-03-08T00:58:36;101991.53;;;3.19;84.89
81704;BME280;71117;52.352;4.808;2024-03-08T01:01:01;101980.50;;;3.23;84.04
81704;BME280;71117;52.352;4.808;2024-03-08T01:03:26;101986.03;;;3.14;84.79
81704;BME280;71117;52.352;4.808;2024-03-08T01:05:52;101983.09;;;3.10;84.28
81704;BME280;71117;52.352;4.808;2024-03-08T01:08:17;101976.69;;;3.05;84.84
81704;BME280;71117;52.352;4.808;2024-03-08T01:10:42;101970.06;;;3.10;84.28
81704;BME280;71117;52.352;4.808;2024-03-08T01:13:08;101981.50;;;3.12;84.51
81704;BME280;71117;52.352;4.808;2024-03-08T01:15:34;101972.69;;;3.10;84.09
81704;BME280;71117;52.352;4.808;2024-03-08T01:18:00;101974.88;;;3.04;84.27
81704;BME280;71117;52.352;4.808;2024-03-08T01:20:26;101967.81;;;3.03;85.07
81704;BME280;71117;52.352;4.808;2024-03-08T01:22:51;101954.91;;;3.04;84.66
81704;BME280;71117;52.352;4.808;2024-03-08T01:25:17;101957.53;;;3.04;84.63
81704;BME280;71117;52.352;4.808;2024-03-08T01:27:42;101953.69;;;2.99;84.45
81704;BME280;71117;52.352;4.808;2024-03-08T01:30:07;101944.66;;;2.94;84.79
81704;BME280;71117;52.352;4.808;2024-03-08T01:32:34;101930.50;;;2.90;84.46
81704;BME280;71117;52.352;4.808;2024-03-08T01:35:00;101935.63;;;2.89;84.34
81704;BME280;71117;52.352;4.808;2024-03-08T01:37:25;101938.16;;;2.87;84.33
81704;BME280;71117;52.352;4.808;2024-03-08T01:39:50;101931.91;;;2.85;85.22
81704;BME280;71117;52.352;4.808;2024-03-08T01:42:15;101930.41;;;2.89;84.17
81704;BME280;71117;52.352;4.808;2024-03-08T01:44:43;101929.13;;;2.82;84.40
81704;BME280;71117;52.352;4.808;2024-03-08T01:47:10;101932.22;;;2.77;84.48
81704;BME280;71117;52.352;4.808;2024-03-08T01:49:36;101921.28;;;2.82;84.32
81704;BME280;71117;52.352;4.808;2024-03-08T01:52:02;101929.31;;;2.85;84.58
81704;BME280;71117;52.352;4.808;2024-03-08T01:54:28;101919.88;;;2.87;83.91
81704;BME280;71117;52.352;4.808;2024-03-08T01:56:56;101917.97;;;2.85;84.23
81704;BME280;71117;52.352;4.808;2024-03-08T01:59:23;101912.56;;;2.82;84.54
81704;BME280;71117;52.352;4.808;2024-03-08T02:01:48;101903.03;;;2.82;84.19
81704;BME280;71117;52.352;4.808;2024-03-08T02:04:14;101909.75;;;2.79;84.38
81704;BME280;71117;52.352;4.808;2024-03-08T02:06:39;101905.13;;;2.75;84.18
81704;BME280;71117;52.352;4.808;2024-03-08T02:09:04;101904.22;;;2.74;84.52
81704;BME280;71117;52.352;4.808;2024-03-08T02:11:34;101898.81;;;2.71;85.10
81704;BME280;71117;52.352;4.808;2024-03-08T02:13:59;101897.91;;;2.71;84.42
81704;BME280;71117;52.352;4.808;2024-03-08T02:16:25;101897.03;;;2.70;84.42
81704;BME280;71117;52.352;4.808;2024-03-08T02:18:50;101896.00;;;2.68;84.67
81704;BME280;71117;52.352;4.808;2024-03-08T02:21:17;101890.06;;;2.57;85.48
81704;BME280;71117;52.352;4.808;2024-03-08T02:23:46;101888.34;;;2.58;85.61
81704;BME280;71117;52.352;4.808;2024-03-08T02:26:12;101884.75;;;2.56;84.54
81704;BME280;71117;52.352;4.808;2024-03-08T02:28:37;101888.19;;;2.55;85.21
81704;BME280;71117;52.352;4.808;2024-03-08T02:31:03;101874.66;;;2.47;85.31
81704;BME280;71117;52.352;4.808;2024-03-08T02:33:33;101871.91;;;2.46;85.58
81704;BME280;71117;52.352;4.808;2024-03-08T02:35:58;101876.22;;;2.45;85.69
81704;BME280;71117;52.352;4.808;2024-03-08T02:38:24;101863.91;;;2.43;85.11
81704;BME280;71117;52.352;4.808;2024-03-08T02:40:50;101873.22;;;2.39;85.77
81704;BME280;71117;52.352;4.808;2024-03-08T02:43:17;101869.47;;;2.35;85.53
81704;BME280;71117;52.352;4.808;2024-03-08T02:45:43;101860.66;;;2.33;86.34
81704;BME280;71117;52.352;4.808;2024-03-08T02:48:09;101848.44;;;2.32;84.93
81704;BME280;71117;52.352;4.808;2024-03-08T02:50:36;101857.97;;;2.32;86.05
81704;BME280;71117;52.352;4.808;2024-03-08T02:53:02;101862.28;;;2.31;84.99
81704;BME280;71117;52.352;4.808;2024-03-08T02:55:28;101853.34;;;2.28;85.53
81704;BME280;71117;52.352;4.808;2024-03-08T02:57:53;101848.03;;;2.26;85.76
81704;BME280;71117;52.352;4.808;2024-03-08T03:00:21;101848.53;;;2.21;86.16
81704;BME280;71117;52.352;4.808;2024-03-08T03:02:49;101853.75;;;2.21;86.23
81704;BME280;71117;52.352;4.808;2024-03-08T03:05:21;101846.13;;;2.24;85.37
81704;BME280;71117;52.352;4.808;2024-03-08T03:07:47;101846.94;;;2.23;85.29
81704;BME280;71117;52.352;4.808;2024-03-08T03:10:13;101841.31;;;2.17;85.42
81704;BME280;71117;52.352;4.808;2024-03-08T03:12:42;101840.91;;;2.10;85.74
81704;BME280;71117;52.352;4.808;2024-03-08T03:15:07;101837.97;;;2.06;85.80
81704;BME280;71117;52.352;4.808;2024-03-08T03:17:33;101830.38;;;2.09;86.29
81704;BME280;71117;52.352;4.808;2024-03-08T03:19:58;101835.78;;;2.12;85.83
81704;BME280;71117;52.352;4.808;2024-03-08T03:22:23;101830.97;;;2.05;86.03
81704;BME280;71117;52.352;4.808;2024-03-08T03:24:50;101828.25;;;2.03;86.18
81704;BME280;71117;52.352;4.808;2024-03-08T03:27:17;101827.47;;;2.04;85.66
81704;BME280;71117;52.352;4.808;2024-03-08T03:29:43;101826.34;;;2.01;86.35
81704;BME280;71117;52.352;4.808;2024-03-08T03:32:12;101821.03;;;1.99;86.37
81704;BME280;71117;52.352;4.808;2024-03-08T03:34:38;101816.16;;;2.04;85.67
81704;BME280;71117;52.352;4.808;2024-03-08T03:37:07;101817.13;;;2.06;86.33
81704;BME280;71117;52.352;4.808;2024-03-08T03:39:34;101811.94;;;2.06;85.52
81704;BME280;71117;52.352;4.808;2024-03-08T03:42:02;101808.44;;;2.05;85.45
81704;BME280;71117;52.352;4.808;2024-03-08T03:44:28;101811.94;;;2.06;85.33
81704;BME280;71117;52.352;4.808;2024-03-08T03:46:53;101809.63;;;2.10;85.25
81704;BME280;71117;52.352;4.808;2024-03-08T03:49:19;101803.53;;;2.10;85.53
81704;BME280;71117;52.352;4.808;2024-03-08T03:51:44;101805.91;;;2.07;84.77
81704;BME280;71117;52.352;4.808;2024-03-08T03:54:10;101801.72;;;2.09;84.86
81704;BME280;71117;52.352;4.808;2024-03-08T03:56:36;101796.38;;;2.07;85.49
81704;BME280;71117;52.352;4.808;2024-03-08T03:59:01;101798.72;;;2.03;84.26
81704;BME280;71117;52.352;4.808;2024-03-08T04:01:26;101796.88;;;2.02;85.05
81704;BME280;71117;52.352;4.808;2024-03-08T04:03:52;101802.91;;;2.01;84.61
81704;BME280;71117;52.352;4.808;2024-03-08T04:06:17;101793.69;;;1.93;84.18
81704;BME280;71117;52.352;4.808;2024-03-08T04:08:42;101799.78;;;1.93;85.10
81704;BME280;71117;52.352;4.808;2024-03-08T04:11:08;101793.88;;;1.96;84.79
81704;BME280;71117;52.352;4.808;2024-03-08T04:13:36;101797.59;;;1.99;84.82
81704;BME280;71117;52.352;4.808;2024-03-08T04:16:03;101789.88;;;2.01;84.31
81704;BME280;71117;52.352;4.808;2024-03-08T04:18:33;101795.78;;;1.98;84.89
81704;BME280;71117;52.352;4.808;2024-03-08T04:21:01;101787.75;;;1.95;83.57
81704;BME280;71117;52.352;4.808;2024-03-08T04:23:27;101784.25;;;1.95;83.81
81704;BME280;71117;52.352;4.808;2024-03-08T04:25:53;101777.97;;;1.91;84.09
81704;BME280;71117;52.352;4.808;2024-03-08T04:28:19;101785.88;;;1.93;84.73
81704;BME280;71117;52.352;4.808;2024-03-08T04:30:44;101780.44;;;1.90;84.07
81704;BME280;71117;52.352;4.808;2024-03-08T04:33:11;101773.44;;;1.89;84.21
81704;BME280;71117;52.352;4.808;2024-03-08T04:35:36;101780.34;;;1.88;85.06
81704;BME280;71117;52.352;4.808;2024-03-08T04:38:02;101778.88;;;1.92;84.00
81704;BME280;71117;52.352;4.808;2024-03-08T04:40:30;101780.25;;;1.87;84.16
81704;BME280;71117;52.352;4.808;2024-03-08T04:42:57;101779.84;;;1.94;84.10
81704;BME280;71117;52.352;4.808;2024-03-08T04:45:23;101775.53;;;1.94;83.96
81704;BME280;71117;52.352;4.808;2024-03-08T04:47:50;101770.25;;;1.93;84.17
81704;BME280;71117;52.352;4.808;2024-03-08T04:50:17;101773.53;;;1.90;84.42
81704;BME280;71117;52.352;4.808;2024-03-08T04:52:43;101769.44;;;1.94;83.97
81704;BME280;71117;52.352;4.808;2024-03-08T04:55:08;101772.03;;;1.94;82.70
81704;BME280;71117;52.352;4.808;2024-03-08T04:57:34;101772.53;;;1.88;84.16
81704;BME280;71117;52.352;4.808;2024-03-08T04:59:59;101766.81;;;1.80;84.51
81704;BME280;71117;52.352;4.808;2024-03-08T05:02:25;101756.28;;;1.79;84.85
81704;BME280;71117;52.352;4.808;2024-03-08T05:04:50;101761.31;;;1.76;84.08
81704;BME280;71117;52.352;4.808;2024-03-08T05:07:16;101748.97;;;1.73;84.31
81704;BME280;71117;52.352;4.808;2024-03-08T05:09:42;101755.19;;;1.75;85.07
81704;BME280;71117;52.352;4.808;2024-03-08T05:12:07;101747.16;;;1.72;85.25
81704;BME280;71117;52.352;4.808;2024-03-08T05:14:33;101753.97;;;1.70;84.08
81704;BME280;71117;52.352;4.808;2024-03-08T05:17:00;101745.13;;;1.68;84.99
81704;BME280;71117;52.352;4.808;2024-03-08T05:19:26;101758.16;;;1.68;85.00
81704;BME280;71117;52.352;4.808;2024-03-08T05:21:51;101741.44;;;1.65;85.34
81704;BME280;71117;52.352;4.808;2024-03-08T05:24:17;101739.53;;;1.62;84.60
81704;BME280;71117;52.352;4.808;2024-03-08T05:26:42;101747.66;;;1.67;85.15
81704;BME280;71117;52.352;4.808;2024-03-08T05:29:08;101738.75;;;1.63;84.47
81704;BME280;71117;52.352;4.808;2024-03-08T05:31:49;101746.66;;;1.65;85.33
81704;BME280;71117;52.352;4.808;2024-03-08T05:34:16;101743.84;;;1.62;84.62
81704;BME280;71117;52.352;4.808;2024-03-08T05:36:41;101739.44;;;1.61;84.60
81704;BME280;71117;52.352;4.808;2024-03-08T05:39:10;101741.34;;;1.63;84.92
81704;BME280;71117;52.352;4.808;2024-03-08T05:41:37;101744.13;;;1.53;84.99
81704;BME280;71117;52.352;4.808;2024-03-08T05:44:02;101737.31;;;1.55;84.01
81704;BME280;71117;52.352;4.808;2024-03-08T05:46:28;101741.84;;;1.57;83.70
81704;BME280;71117;52.352;4.808;2024-03-08T05:48:53;101734.53;;;1.65;83.90
81704;BME280;71117;52.352;4.808;2024-03-08T05:51:19;101735.34;;;1.64;83.54
81704;BME280;71117;52.352;4.808;2024-03-08T05:53:46;101736.16;;;1.63;83.62
81704;BME280;71117;52.352;4.808;2024-03-08T05:56:11;101737.31;;;1.55;84.24
81704;BME280;71117;52.352;4.808;2024-03-08T05:58:36;101735.41;;;1.52;84.96
81704;BME280;71117;52.352;4.808;2024-03-08T06:01:02;101731.63;;;1.61;83.66
81704;BME280;71117;52.352;4.808;2024-03-08T06:03:27;101732.53;;;1.61;84.23
81704;BME280;71117;52.352;4.808;2024-03-08T06:05:52;101726.22;;;1.57;83.86
81704;BME280;71117;52.352;4.808;2024-03-08T06:08:18;101717.81;;;1.62;84.00
81704;BME280;71117;52.352;4.808;2024-03-08T06:10:44;101725.75;;;1.63;83.91
81704;BME280;71117;52.352;4.808;2024-03-08T06:13:09;101709.81;;;1.58;84.44
81704;BME280;71117;52.352;4.808;2024-03-08T06:15:37;101710.38;;;1.54;84.88
81704;BME280;71117;52.352;4.808;2024-03-08T06:18:02;101725.28;;;1.57;84.08
81704;BME280;71117;52.352;4.808;2024-03-08T06:20:28;101721.53;;;1.65;83.49
81704;BME280;71117;52.352;4.808;2024-03-08T06:22:53;101711.91;;;1.64;83.67
81704;BME280;71117;52.352;4.808;2024-03-08T06:25:18;101708.28;;;1.62;84.25
81704;BME280;71117;52.352;4.808;2024-03-08T06:27:44;101719.31;;;1.58;83.37
81704;BME280;71117;52.352;4.808;2024-03-08T06:30:11;101713.47;;;1.49;85.28
81704;BME280;71117;52.352;4.808;2024-03-08T06:32:37;101716.00;;;1.47;84.83
81704;BME280;71117;52.352;4.808;2024-03-08T06:35:03;101716.41;;;1.53;83.68
81704;BME280;71117;52.352;4.808;2024-03-08T06:37:32;101711.31;;;1.68;84.32
81704;BME280;71117;52.352;4.808;2024-03-08T06:39:57;101702.81;;;1.71;82.92
81704;BME280;71117;52.352;4.808;2024-03-08T06:42:22;101705.72;;;1.75;82.75
81704;BME280;71117;52.352;4.808;2024-03-08T06:44:48;101708.34;;;1.75;83.86
81704;BME280;71117;52.352;4.808;2024-03-08T06:47:16;101709.94;;;1.87;83.00
81704;BME280;71117;52.352;4.808;2024-03-08T06:49:44;101711.84;;;1.89;82.88
81704;BME280;71117;52.352;4.808;2024-03-08T06:52:10;101706.72;;;1.91;83.06
81704;BME280;71117;52.352;4.808;2024-03-08T06:54:36;101699.22;;;1.95;82.18
81704;BME280;71117;52.352;4.808;2024-03-08T06:57:04;101713.75;;;2.05;82.51
81704;BME280;71117;52.352;4.808;2024-03-08T06:59:33;101715.25;;;2.01;82.37
81704;BME280;71117;52.352;4.808;2024-03-08T07:02:00;101701.84;;;2.08;81.50
81704;BME280;71117;52.352;4.808;2024-03-08T07:04:26;101710.88;;;2.14;81.43
81704;BME280;71117;52.352;4.808;2024-03-08T07:06:57;101702.13;;;2.13;81.69
81704;BME280;71117;52.352;4.808;2024-03-08T07:09:26;101694.94;;;2.09;81.34
81704;BME280;71117;52.352;4.808;2024-03-08T07:11:51;101702.25;;;2.15;81.69
81704;BME280;71117;52.352;4.808;2024-03-08T07:14:23;101694.03;;;2.08;82.09
81704;BME280;71117;52.352;4.808;2024-03-08T07:16:49;101696.72;;;2.10;82.79
81704;BME280;71117;52.352;4.808;2024-03-08T07:19:14;101698.84;;;2.16;81.81
81704;BME280;71117;52.352;4.808;2024-03-08T07:21:41;101691.72;;;2.26;80.43
81704;BME280;71117;52.352;4.808;2024-03-08T07:24:07;101695.69;;;2.34;80.40
81704;BME280;71117;52.352;4.808;2024-03-08T07:26:53;101687.06;;;2.35;81.00
81704;BME280;71117;52.352;4.808;2024-03-08T07:29:18;101680.97;;;2.35;80.20
81704;BME280;71117;52.352;4.808;2024-03-08T07:31:43;101679.38;;;2.37;80.72
81704;BME280;71117;52.352;4.808;2024-03-08T07:34:27;101677.75;;;2.39;80.88
81704;BME280;71117;52.352;4.808;2024-03-08T07:36:57;101682.47;;;2.45;79.80
81704;BME280;71117;52.352;4.808;2024-03-08T07:39:22;101674.22;;;2.52;79.90
81704;BME280;71117;52.352;4.808;2024-03-08T07:41:49;101678.81;;;2.56;79.67
81704;BME280;71117;52.352;4.808;2024-03-08T07:44:14;101671.09;;;2.57;80.62
81704;BME280;71117;52.352;4.808;2024-03-08T07:46:39;101664.59;;;2.64;80.37
81704;BME280;71117;52.352;4.808;2024-03-08T07:49:06;101655.22;;;2.68;79.68
81704;BME280;71117;52.352;4.808;2024-03-08T07:51:31;101653.91;;;2.74;79.02
81704;BME280;71117;52.352;4.808;2024-03-08T07:53:59;101658.50;;;2.78;79.26
81704;BME280;71117;52.352;4.808;2024-03-08T07:56:25;101654.38;;;2.82;78.32
81704;BME280;71117;52.352;4.808;2024-03-08T07:58:50;101640.81;;;2.87;78.30
81704;BME280;71117;52.352;4.808;2024-03-08T08:01:19;101644.88;;;2.97;77.70
81704;BME280;71117;52.352;4.808;2024-03-08T08:03:45;101655.78;;;3.05;77.54
81704;BME280;71117;52.352;4.808;2024-03-08T08:06:11;101649.03;;;3.08;77.16
81704;BME280;71117;52.352;4.808;2024-03-08T08:08:41;101653.47;;;3.24;76.26
81704;BME280;71117;52.352;4.808;2024-03-08T08:11:06;101647.34;;;3.24;76.52
81704;BME280;71117;52.352;4.808;2024-03-08T08:13:34;101650.84;;;3.24;77.37
81704;BME280;71117;52.352;4.808;2024-03-08T08:16:00;101650.16;;;3.27;76.97
81704;BME280;71117;52.352;4.808;2024-03-08T08:18:25;101638.66;;;3.38;76.07
81704;BME280;71117;52.352;4.808;2024-03-08T08:20:51;101636.13;;;3.39;76.87
81704;BME280;71117;52.352;4.808;2024-03-08T08:23:17;101631.34;;;3.47;75.76
81704;BME280;71117;52.352;4.808;2024-03-08T08:25:44;101631.06;;;3.57;75.08
81704;BME280;71117;52.352;4.808;2024-03-08T08:28:10;101633.94;;;3.62;75.13
81704;BME280;71117;52.352;4.808;2024-03-08T08:30:35;101621.16;;;3.66;74.88
81704;BME280;71117;52.352;4.808;2024-03-08T08:33:00;101622.41;;;3.73;75.17
81704;BME280;71117;52.352;4.808;2024-03-08T08:35:26;101614.84;;;3.78;75.44
81704;BME280;71117;52.352;4.808;2024-03-08T08:37:52;101617.88;;;3.85;74.92
81704;BME280;71117;52.352;4.808;2024-03-08T08:40:17;101612.19;;;3.92;73.75
81704;BME280;71117;52.352;4.808;2024-03-08T08:42:44;101610.03;;;4.00;74.07
81704;BME280;71117;52.352;4.808;2024-03-08T08:45:10;101605.84;;;4.04;73.38
81704;BME280;71117;52.352;4.808;2024-03-08T08:47:36;101603.44;;;4.07;73.40
81704;BME280;71117;52.352;4.808;2024-03-08T08:50:02;101599.78;;;4.19;73.00
81704;BME280;71117;52.352;4.808;2024-03-08T08:52:29;101593.53;;;4.32;72.41
81704;BME280;71117;52.352;4.808;2024-03-08T08:54:55;101595.81;;;4.42;71.95
81704;BME280;71117;52.352;4.808;2024-03-08T08:57:20;101592.16;;;4.55;71.12
81704;BME280;71117;52.352;4.808;2024-03-08T08:59:45;101591.66;;;4.62;71.00
81704;BME280;71117;52.352;4.808;2024-03-08T09:02:11;101586.56;;;4.65;70.80
81704;BME280;71117;52.352;4.808;2024-03-08T09:04:36;101585.09;;;4.70;70.09
81704;BME280;71117;52.352;4.808;2024-03-08T09:07:01;101584.69;;;4.79;70.60
81704;BME280;71117;52.352;4.808;2024-03-08T09:09:27;101578.06;;;4.86;70.89
81704;BME280;71117;52.352;4.808;2024-03-08T09:11:52;101572.56;;;4.97;69.52
81704;BME280;71117;52.352;4.808;2024-03-08T09:14:19;101562.53;;;5.05;69.41
81704;BME280;71117;52.352;4.808;2024-03-08T09:16:46;101570.50;;;5.08;68.01
81704;BME280;71117;52.352;4.808;2024-03-08T09:19:15;101557.53;;;5.27;67.70
81704;BME280;71117;52.352;4.808;2024-03-08T09:21:42;101558.66;;;5.32;68.41
81704;BME280;71117;52.352;4.808;2024-03-08T09:24:07;101555.75;;;5.44;68.01
81704;BME280;71117;52.352;4.808;2024-03-08T09:26:33;101549.94;;;5.68;66.51
81704;BME280;71117;52.352;4.808;2024-03-08T09:28:59;101553.97;;;5.79;65.86
81704;BME280;71117;52.352;4.808;2024-03-08T09:31:24;101561.53;;;5.91;67.03
81704;BME280;71117;52.352;4.808;2024-03-08T09:33:51;101548.84;;;6.18;66.55
81704;BME280;71117;52.352;4.808;2024-03-08T09:36:17;101540.94;;;6.35;65.79
81704;BME280;71117;52.352;4.808;2024-03-08T09:38:42;101539.22;;;6.36;65.72
81704;BME280;71117;52.352;4.808;2024-03-08T09:41:08;101527.88;;;6.56;64.62
81704;BME280;71117;52.352;4.808;2024-03-08T09:43:35;101528.63;;;6.54;64.19
81704;BME280;71117;52.352;4.808;2024-03-08T09:46:01;101521.53;;;6.71;63.99
81704;BME280;71117;52.352;4.808;2024-03-08T09:48:27;101518.69;;;6.85;62.79
81704;BME280;71117;52.352;4.808;2024-03-08T09:50:54;101506.38;;;7.05;62.93
81704;BME280;71117;52.352;4.808;2024-03-08T09:53:20;101502.03;;;7.27;62.72
81704;BME280;71117;52.352;4.808;2024-03-08T09:55:47;101502.09;;;7.28;61.72
81704;BME280;71117;52.352;4.808;2024-03-08T09:58:15;101485.44;;;7.49;62.63
81704;BME280;71117;52.352;4.808;2024-03-08T10:00:55;101487.78;;;7.63;60.87
81704;BME280;71117;52.352;4.808;2024-03-08T10:03:26;101482.81;;;7.93;60.01
81704;BME280;71117;52.352;4.808;2024-03-08T10:05:52;101483.69;;;8.16;60.89
81704;BME280;71117;52.352;4.808;2024-03-08T10:08:17;101480.34;;;8.20;58.80
81704;BME280;71117;52.352;4.808;2024-03-08T10:10:43;101475.34;;;8.04;58.82
81704;BME280;71117;52.352;4.808;2024-03-08T10:13:09;101465.66;;;8.27;58.00
81704;BME280;71117;52.352;4.808;2024-03-08T10:15:39;101465.25;;;8.39;57.60
81704;BME280;71117;52.352;4.808;2024-03-08T10:18:05;101466.13;;;8.63;57.32
81704;BME280;71117;52.352;4.808;2024-03-08T10:20:31;101458.31;;;8.65;57.10
81704;BME280;71117;52.352;4.808;2024-03-08T10:23:03;101455.00;;;9.23;56.71
81704;BME280;71117;52.352;4.808;2024-03-08T10:25:30;101446.34;;;9.54;60.44
81704;BME280;71117;52.352;4.808;2024-03-08T10:27:56;101432.75;;;9.42;55.82
81704;BME280;71117;52.352;4.808;2024-03-08T10:30:21;101437.25;;;9.44;55.57
81704;BME280;71117;52.352;4.808;2024-03-08T10:32:48;101436.72;;;9.85;55.03
81704;BME280;71117;52.352;4.808;2024-03-08T10:35:13;101420.03;;;9.86;54.46
81704;BME280;71117;52.352;4.808;2024-03-08T10:37:47;101426.63;;;10.00;55.00
81704;BME280;71117;52.352;4.808;2024-03-08T10:40:17;101416.47;;;10.44;51.90
81704;BME280;71117;52.352;4.808;2024-03-08T10:42:57;101407.41;;;11.02;51.89
81704;BME280;71117;52.352;4.808;2024-03-08T10:45:40;101400.63;;;11.13;49.61
81704;BME280;71117;52.352;4.808;2024-03-08T10:50:57;101397.25;;;11.96;49.11
81704;BME280;71117;52.352;4.808;2024-03-08T10:53:22;101392.81;;;12.40;47.73
81704;BME280;71117;52.352;4.808;2024-03-08T10:55:51;101388.31;;;12.84;47.73
81704;BME280;71117;52.352;4.808;2024-03-08T10:58:21;101387.44;;;13.38;46.58
81704;BME280;71117;52.352;4.808;2024-03-08T11:00:48;101374.19;;;13.40;43.14
81704;BME280;71117;52.352;4.808;2024-03-08T11:06:30;101363.06;;;13.64;44.69
81704;BME280;71117;52.352;4.808;2024-03-08T11:08:55;101359.34;;;14.22;41.76
81704;BME280;71117;52.352;4.808;2024-03-08T11:13:59;101346.53;;;14.70;40.03
81704;BME280;71117;52.352;4.808;2024-03-08T11:16:37;101353.66;;;14.71;43.32
81704;BME280;71117;52.352;4.808;2024-03-08T11:21:36;101327.22;;;14.91;41.06
81704;BME280;71117;52.352;4.808;2024-03-08T11:24:10;101324.72;;;15.14;41.37
81704;BME280;71117;52.352;4.808;2024-03-08T11:30:08;101315.97;;;14.25;41.64
81704;BME280;71117;52.352;4.808;2024-03-08T11:32:46;101307.25;;;15.61;41.29
81704;BME280;71117;52.352;4.808;2024-03-08T11:35:22;101290.53;;;16.04;38.82
81704;BME280;71117;52.352;4.808;2024-03-08T11:37:50;101297.72;;;16.58;39.43
81704;BME280;71117;52.352;4.808;2024-03-08T11:40:16;101287.03;;;16.26;36.71
81704;BME280;71117;52.352;4.808;2024-03-08T11:42:48;101281.69;;;16.25;36.78
81704;BME280;71117;52.352;4.808;2024-03-08T11:45:17;101285.28;;;16.34;38.01
81704;BME280;71117;52.352;4.808;2024-03-08T11:47:46;101285.28;;;16.59;37.32
81704;BME280;71117;52.352;4.808;2024-03-08T11:50:14;101273.47;;;17.67;37.88
81704;BME280;71117;52.352;4.808;2024-03-08T11:52:40;101263.59;;;17.92;35.74
81704;BME280;71117;52.352;4.808;2024-03-08T11:55:06;101259.19;;;17.82;36.18
81704;BME280;71117;52.352;4.808;2024-03-08T11:57:32;101260.41;;;16.87;34.97
81704;BME280;71117;52.352;4.808;2024-03-08T11:59:58;101252.34;;;17.04;35.69
81704;BME280;71117;52.352;4.808;2024-03-08T12:02:35;101258.66;;;16.79;36.53
81704;BME280;71117;52.352;4.808;2024-03-08T12:05:06;101248.84;;;16.52;36.51
81704;BME280;71117;52.352;4.808;2024-03-08T12:07:31;101246.16;;;16.26;37.09
81704;BME280;71117;52.352;4.808;2024-03-08T12:10:19;101247.91;;;15.98;36.49
81704;BME280;71117;52.352;4.808;2024-03-08T12:12:51;101235.53;;;16.29;35.85
81704;BME280;71117;52.352;4.808;2024-03-08T12:15:18;101222.09;;;17.11;36.76
81704;BME280;71117;52.352;4.808;2024-03-08T12:17:45;101207.69;;;17.54;34.44
81704;BME280;71117;52.352;4.808;2024-03-08T12:20:24;101201.13;;;18.07;32.90
81704;BME280;71117;52.352;4.808;2024-03-08T12:22:54;101198.09;;;18.49;32.68
81704;BME280;71117;52.352;4.808;2024-03-08T12:25:26;101202.22;;;17.81;32.85
81704;BME280;71117;52.352;4.808;2024-03-08T12:27:51;101203.44;;;17.13;34.30
81704;BME280;71117;52.352;4.808;2024-03-08T12:30:19;101200.56;;;17.57;34.96
81704;BME280;71117;52.352;4.808;2024-03-08T12:32:53;101206.69;;;17.76;33.74
81704;BME280;71117;52.352;4.808;2024-03-08T12:35:20;101194.13;;;17.92;33.04
81704;BME280;71117;52.352;4.808;2024-03-08T12:37:49;101196.69;;;18.07;33.24
81704;BME280;71117;52.352;4.808;2024-03-08T12:40:14;101197.59;;;18.05;32.79
81704;BME280;71117;52.352;4.808;2024-03-08T12:42:45;101182.16;;;18.42;31.88
81704;BME280;71117;52.352;4.808;2024-03-08T12:45:13;101195.31;;;17.36;34.79
81704;BME280;71117;52.352;4.808;2024-03-08T12:47:38;101174.72;;;17.62;34.50
81704;BME280;71117;52.352;4.808;2024-03-08T12:50:07;101181.16;;;17.18;35.24
81704;BME280;71117;52.352;4.808;2024-03-08T12:52:34;101171.41;;;18.45;33.72
81704;BME280;71117;52.352;4.808;2024-03-08T12:54:59;101169.88;;;18.19;32.22
81704;BME280;71117;52.352;4.808;2024-03-08T12:57:28;101163.38;;;18.45;32.76
81704;BME280;71117;52.352;4.808;2024-03-08T12:59:54;101156.81;;;19.50;30.78
81704;BME280;71117;52.352;4.808;2024-03-08T13:02:19;101150.00;;;19.26;32.23
81704;BME280;71117;52.352;4.808;2024-03-08T13:04:46;101149.00;;;19.34;32.39
81704;BME280;71117;52.352;4.808;2024-03-08T13:07:21;101147.28;;;18.53;32.03
81704;BME280;71117;52.352;4.808;2024-03-08T13:09:46;101138.75;;;18.98;33.64